Time;durP1;ratioP1;P1;durP2;ratioP2;P2;SDS_P1;SDS_P2;PMS_P1;PMS_P2;Temp;Humidity;BMP_temperature;BMP_pressure;BME280_temperature;BME280_humidity;BME280_pressure;Samples;Min_cycle;Max_cycle;Signal;HPM_P1;HPM_P2
2022/11/12 00:01:19;;;;;;;;;;;;;;;18.25;65.86;102488.37;2405687;73;51657;-76
2022/11/12 00:04:20;;;;;;;;;;;;;;;18.23;65.82;102480.45;2387823;73;51623;-75
2022/11/12 00:07:22;;;;;;;;;;;;;;;18.22;65.80;102482.79;2414002;73;51592;-75
2022/11/12 00:10:24;;;;;;;;;;;;;;;18.23;65.78;102478.27;2413857;73;51399;-75
2022/11/12 00:13:25;;;;;;;;;;;;;;;18.21;65.84;102481.11;2360529;73;50955;-75
2022/11/12 00:16:27;;;;;;;;;;;;;;;18.20;65.87;102486.59;2388073;73;50695;-75
2022/11/12 00:19:28;;;;;;;;;;;;;;;18.22;65.85;102482.79;2406865;73;51413;-74
2022/11/12 00:22:30;;;;;;;;;;;;;;;18.19;65.85;102483.06;2414129;73;51454;-76
2022/11/12 00:25:32;;;;;;;;;;;;;;;18.19;65.85;102483.56;2416045;73;51388;-74
2022/11/12 00:28:33;;;;;;;;;;;;;;;18.19;65.84;102478.20;2388120;73;51574;-74
2022/11/12 00:31:36;;;;;;;;;;;;;;;18.18;65.83;102474.66;2416147;73;52382;-75
2022/11/12 00:34:37;;;;;;;;;;;;;;;18.17;65.84;102469.45;2413922;73;50682;-75
2022/11/12 00:37:39;;;;;;;;;;;;;;;18.17;65.81;102473.47;2416225;73;50975;-75
2022/11/12 00:40:41;;;;;;;;;;;;;;;18.17;65.83;102478.83;2388026;73;52642;-75
2022/11/12 00:43:42;;;;;;;;;;;;;;;18.16;65.82;102477.11;2387968;73;50480;-75
2022/11/12 00:46:44;;;;;;;;;;;;;;;18.16;65.82;102483.81;2388179;73;51532;-75
2022/11/12 00:49:45;;;;;;;;;;;;;;;18.16;65.83;102479.80;2336599;74;51665;-75
2022/11/12 00:52:47;;;;;;;;;;;;;;;18.15;65.80;102477.61;2369071;74;50666;-77
2022/11/12 00:55:49;;;;;;;;;;;;;;;18.15;65.77;102483.47;2398518;73;51451;-77
2022/11/12 00:58:50;;;;;;;;;;;;;;;18.14;65.79;102476.42;2413676;73;51548;-77
2022/11/12 01:01:52;;;;;;;;;;;;;;;18.14;65.76;102479.95;2383795;73;52471;-76
2022/11/12 01:04:53;;;;;;;;;;;;;;;18.13;65.81;102480.07;2394876;74;51594;-77
2022/11/12 01:07:55;;;;;;;;;;;;;;;18.13;65.78;102479.57;2368735;74;51380;-77
2022/11/12 01:10:57;;;;;;;;;;;;;;;18.11;65.78;102478.88;2380061;73;51414;-76
2022/11/12 01:14:00;;;;;;;;;;;;;;;18.12;65.77;102473.03;2363409;73;51693;-76
2022/11/12 01:17:02;;;;;;;;;;;;;;;18.12;65.77;102474.36;2383623;73;52237;-76
2022/11/12 01:20:03;;;;;;;;;;;;;;;18.11;65.74;102476.20;2369540;73;50162;-77
2022/11/12 01:23:05;;;;;;;;;;;;;;;18.11;65.79;102472.66;2411331;73;51380;-77
2022/11/12 01:26:07;;;;;;;;;;;;;;;18.11;65.78;102471.31;2392868;73;51755;-76
2022/11/12 01:29:09;;;;;;;;;;;;;;;18.10;65.78;102474.98;2411340;74;50086;-76
2022/11/12 01:32:11;;;;;;;;;;;;;;;18.10;65.77;102471.81;2410614;74;50770;-77
2022/11/12 01:35:12;;;;;;;;;;;;;;;18.10;65.79;102473.15;2410504;74;50696;-77
2022/11/12 01:38:14;;;;;;;;;;;;;;;18.10;65.74;102476.33;2382045;74;51124;-77
2022/11/12 01:41:17;;;;;;;;;;;;;;;18.10;65.76;102479.00;2381927;74;50502;-76
2022/11/12 01:44:19;;;;;;;;;;;;;;;18.08;65.74;102479.62;2410441;74;51550;-76
2022/11/12 01:47:21;;;;;;;;;;;;;;;18.09;65.75;102481.34;2410369;74;50794;-76
2022/11/12 01:50:23;;;;;;;;;;;;;;;18.08;65.77;102482.30;2381705;74;51556;-78
2022/11/12 01:53:26;;;;;;;;;;;;;;;18.08;65.74;102480.97;2410321;74;50797;-78
2022/11/12 01:56:27;;;;;;;;;;;;;;;18.06;65.77;102487.31;2408692;73;50375;-76
2022/11/12 01:59:30;;;;;;;;;;;;;;;18.06;65.76;102487.31;2407818;73;51516;-76
2022/11/12 02:02:32;;;;;;;;;;;;;;;18.06;65.74;102481.12;2416066;73;51745;-76
2022/11/12 02:05:33;;;;;;;;;;;;;;;18.05;65.71;102482.92;2413972;73;50260;-76
2022/11/12 02:08:35;;;;;;;;;;;;;;;18.05;65.73;102481.59;2414192;73;50635;-77
2022/11/12 02:11:37;;;;;;;;;;;;;;;18.03;65.73;102483.58;2414198;73;51408;-75
2022/11/12 02:14:38;;;;;;;;;;;;;;;18.03;65.74;102483.58;2360757;73;51680;-76
2022/11/12 02:17:40;;;;;;;;;;;;;;;18.03;65.76;102486.25;2414088;73;52264;-76
2022/11/12 02:20:41;;;;;;;;;;;;;;;18.04;65.72;102489.77;2387918;73;51377;-76
2022/11/12 02:23:43;;;;;;;;;;;;;;;18.03;65.73;102486.25;2412784;72;50380;-76
2022/11/12 02:26:45;;;;;;;;;;;;;;;18.03;65.71;102498.31;2349003;73;49586;-76
2022/11/12 02:29:47;;;;;;;;;;;;;;;18.02;65.71;102492.58;2411996;73;51488;-77
2022/11/12 02:32:48;;;;;;;;;;;;;;;18.02;65.71;102491.23;2412088;73;51438;-77
2022/11/12 02:35:50;;;;;;;;;;;;;;;18.02;65.73;102494.41;2411134;73;50240;-77
2022/11/12 02:38:52;;;;;;;;;;;;;;;18.02;65.67;102493.91;2384779;73;51182;-77
2022/11/12 02:41:53;;;;;;;;;;;;;;;18.02;65.72;102503.78;2411529;73;50410;-76
2022/11/12 02:44:55;;;;;;;;;;;;;;;18.01;65.70;102506.97;2412083;73;50624;-77
2022/11/12 02:47:56;;;;;;;;;;;;;;;18.01;65.69;102507.46;2412254;73;51531;-76
2022/11/12 02:50:58;;;;;;;;;;;;;;;18.00;65.69;102511.94;2379612;73;52340;-77
2022/11/12 02:53:59;;;;;;;;;;;;;;;18.01;65.66;102516.83;2392660;73;51356;-77
2022/11/12 02:57:01;;;;;;;;;;;;;;;17.99;65.67;102514.28;2410472;73;50679;-77
2022/11/12 03:00:07;;;;;;;;;;;;;;;17.99;65.68;102512.09;2408456;74;50276;-74
2022/11/12 03:03:08;;;;;;;;;;;;;;;17.99;65.69;102524.15;2382330;74;52423;-75
2022/11/12 03:06:10;;;;;;;;;;;;;;;17.99;65.70;102528.16;2383427;73;50323;-75
2022/11/12 03:09:11;;;;;;;;;;;;;;;17.97;65.69;102532.30;2412340;73;50453;-75
2022/11/12 03:12:13;;;;;;;;;;;;;;;17.98;65.67;102541.19;2412507;73;50613;-75
2022/11/12 03:15:16;;;;;;;;;;;;;;;17.96;65.68;102544.02;2412249;73;50364;-76
2022/11/12 03:18:18;;;;;;;;;;;;;;;17.97;65.67;102532.30;2386808;73;50419;-76
2022/11/12 03:21:19;;;;;;;;;;;;;;;17.97;65.66;102544.36;2412441;73;50397;-76
2022/11/12 03:24:21;;;;;;;;;;;;;;;17.96;65.68;102539.99;2401888;73;50371;-76
2022/11/12 03:27:22;;;;;;;;;;;;;;;17.97;65.64;102545.70;2376346;73;51934;-75
2022/11/12 03:30:25;;;;;;;;;;;;;;;17.96;65.63;102548.03;2367797;74;50444;-75
2022/11/12 03:33:27;;;;;;;;;;;;;;;17.95;65.64;102539.62;2410206;73;50325;-75
2022/11/12 03:36:28;;;;;;;;;;;;;;;17.96;65.64;102549.37;2411619;73;50268;-76
2022/11/12 03:39:30;;;;;;;;;;;;;;;17.95;65.63;102543.63;2382310;73;49571;-76
2022/11/12 03:42:31;;;;;;;;;;;;;;;17.95;65.63;102548.15;2386967;73;50618;-76
2022/11/12 03:45:33;;;;;;;;;;;;;;;17.94;65.63;102544.63;2427417;73;51618;-76
2022/11/12 03:48:35;;;;;;;;;;;;;;;17.94;65.60;102543.29;2423398;73;50724;-77
2022/11/12 03:51:36;;;;;;;;;;;;;;;17.95;65.61;102544.13;2382948;73;52350;-76
2022/11/12 03:54:38;;;;;;;;;;;;;;;17.94;65.62;102541.11;2411946;73;51427;-77
2022/11/12 03:57:39;;;;;;;;;;;;;;;17.93;65.59;102543.41;2382634;73;52646;-76
2022/11/12 04:00:41;;;;;;;;;;;;;;;17.94;65.57;102549.98;2416053;73;51481;-76
2022/11/12 04:03:43;;;;;;;;;;;;;;;17.93;65.62;102543.41;2402383;73;51437;-76
2022/11/12 04:09:59;;;;;;;;;;;;;;;17.93;65.61;102543.41;2343120;73;22518;-76
2022/11/12 04:23:02;;;;;;;;;;;;;;;17.86;65.55;102539.09;2332993;76;22342;-76
2022/11/12 04:32:47;;;;;;;;;;;;;;;18.10;65.33;102550.84;2305543;76;22458;-76
2022/11/12 04:35:48;;;;;;;;;;;;;;;18.21;65.09;102553.91;2315509;76;50787;-77
2022/11/12 04:38:50;;;;;;;;;;;;;;;18.33;64.83;102551.51;2307845;76;51479;-76
2022/11/12 04:45:11;;;;;;;;;;;;;;;18.50;64.40;102556.23;2314397;76;22449;-75
2022/11/12 04:48:13;;;;;;;;;;;;;;;18.62;64.15;102558.80;2378158;74;51435;-75
2022/11/12 04:54:34;;;;;;;;;;;;;;;18.78;63.77;102556.49;2379508;74;24565;-77
2022/11/12 04:57:36;;;;;;;;;;;;;;;18.87;63.55;102554.30;2347330;74;49578;-76
2022/11/12 05:00:38;;;;;;;;;;;;;;;18.95;63.36;102564.84;2389929;73;51594;-76
2022/11/12 05:03:39;;;;;;;;;;;;;;;19.03;63.19;102560.97;2407638;73;52196;-76
2022/11/12 05:06:53;;;;;;;;;;;;;;;19.03;63.15;102560.47;2359006;73;51011;-76
2022/11/12 05:09:55;;;;;;;;;;;;;;;19.02;63.17;102564.14;2389240;73;51387;-76
2022/11/12 05:12:56;;;;;;;;;;;;;;;18.99;63.22;102564.44;2412557;73;51633;-76
2022/11/12 05:15:58;;;;;;;;;;;;;;;18.96;63.26;102566.05;2412202;73;50706;-76
2022/11/12 05:19:00;;;;;;;;;;;;;;;18.91;63.38;102565.63;2386473;73;50978;-76
2022/11/12 05:22:07;;;;;;;;;;;;;;;18.88;63.46;102574.80;2386557;73;50701;-76
2022/11/12 05:25:08;;;;;;;;;;;;;;;18.85;63.52;102580.41;2387682;73;51521;-76
2022/11/12 05:28:10;;;;;;;;;;;;;;;18.88;63.51;102580.62;2412476;73;51426;-76
2022/11/12 05:31:12;;;;;;;;;;;;;;;18.93;63.42;102587.77;2359868;73;50614;-76
2022/11/12 05:34:13;;;;;;;;;;;;;;;18.99;63.29;102586.39;2398967;74;51284;-76
2022/11/12 05:37:15;;;;;;;;;;;;;;;19.05;63.16;102579.96;2401823;73;50250;-76
2022/11/12 05:40:16;;;;;;;;;;;;;;;19.07;63.06;102577.99;2412150;73;50345;-77
2022/11/12 05:43:18;;;;;;;;;;;;;;;19.05;63.10;102575.09;2355684;73;52318;-76
2022/11/12 05:46:19;;;;;;;;;;;;;;;19.02;63.14;102576.22;2412231;73;50257;-77
2022/11/12 05:49:21;;;;;;;;;;;;;;;19.01;63.18;102576.34;2412195;73;50396;-77
2022/11/12 05:52:23;;;;;;;;;;;;;;;18.97;63.26;102580.31;2412160;73;50246;-77
2022/11/12 05:55:24;;;;;;;;;;;;;;;18.92;63.35;102585.59;2381611;73;51144;-77
2022/11/12 05:58:26;;;;;;;;;;;;;;;18.89;63.42;102587.21;2412672;73;50462;-75
2022/11/12 06:01:27;;;;;;;;;;;;;;;18.87;63.49;102583.81;2392848;73;50771;-75
2022/11/12 06:04:29;;;;;;;;;;;;;;;18.90;63.46;102587.55;2412439;73;51413;-73
2022/11/12 06:07:31;;;;;;;;;;;;;;;18.96;63.31;102586.64;2386146;73;51704;-73
2022/11/12 06:10:32;;;;;;;;;;;;;;;19.01;63.14;102583.93;2382890;73;50712;-73
2022/11/12 06:13:34;;;;;;;;;;;;;;;19.07;63.02;102589.23;2412509;73;51410;-76
2022/11/12 06:16:35;;;;;;;;;;;;;;;19.09;62.91;102585.91;2382937;73;50666;-73
2022/11/12 06:19:37;;;;;;;;;;;;;;;19.09;62.87;102585.91;2327056;74;51142;-74
2022/11/12 06:22:38;;;;;;;;;;;;;;;19.08;62.90;102589.06;2396043;74;50742;-74
2022/11/12 06:25:40;;;;;;;;;;;;;;;19.04;62.93;102584.98;2372608;73;50604;-74
2022/11/12 06:28:42;;;;;;;;;;;;;;;19.02;63.02;102584.77;2382795;73;51606;-73
2022/11/12 06:31:43;;;;;;;;;;;;;;;18.98;63.09;102583.34;2389884;73;51029;-74
2022/11/12 06:34:45;;;;;;;;;;;;;;;18.93;63.19;102585.96;2426575;73;51373;-73
2022/11/12 06:37:46;;;;;;;;;;;;;;;18.91;63.25;102586.59;2383960;73;50630;-73
2022/11/12 06:40:48;;;;;;;;;;;;;;;18.93;63.25;102600.72;2407534;74;50578;-74
2022/11/12 06:43:50;;;;;;;;;;;;;;;18.98;63.17;102598.09;2333033;74;52453;-75
2022/11/12 06:46:51;;;;;;;;;;;;;;;19.03;62.98;102608.76;2430815;71;51485;-76
2022/11/12 06:49:53;;;;;;;;;;;;;;;19.07;62.84;102618.23;2464650;72;51459;-75
2022/11/12 06:52:56;;;;;;;;;;;;;;;19.07;62.85;102621.42;2437272;72;50705;-72
2022/11/12 06:55:59;;;;;;;;;;;;;;;19.05;62.85;102614.84;2437525;72;49597;-72
2022/11/12 06:59:01;;;;;;;;;;;;;;;19.02;62.95;102623.67;2463386;72;50694;-72
2022/11/12 07:02:03;;;;;;;;;;;;;;;18.99;62.98;102622.11;2383180;73;50272;-73
2022/11/12 07:05:05;;;;;;;;;;;;;;;18.96;63.05;102623.73;2343094;75;50848;-72
2022/11/12 07:08:06;;;;;;;;;;;;;;;18.93;63.11;102634.25;2352475;73;52919;-72
2022/11/12 07:11:08;;;;;;;;;;;;;;;18.90;63.19;102634.50;2382100;74;51363;-72
2022/11/12 07:14:09;;;;;;;;;;;;;;;18.92;63.21;102639.23;2405823;74;50617;-72
2022/11/12 07:17:11;;;;;;;;;;;;;;;18.97;63.15;102632.63;2415906;73;51540;-72
2022/11/12 07:20:13;;;;;;;;;;;;;;;19.03;63.06;102643.64;2421833;73;50602;-72
2022/11/12 07:23:14;;;;;;;;;;;;;;;19.12;62.95;102644.67;2395330;73;52927;-73
2022/11/12 07:26:17;;;;;;;;;;;;;;;19.11;63.02;102639.80;2395398;73;51636;-72
2022/11/12 07:29:19;;;;;;;;;;;;;;;19.13;63.00;102643.67;2411972;73;51421;-72
2022/11/12 07:32:21;;;;;;;;;;;;;;;19.11;62.98;102651.00;2412351;73;51456;-73
2022/11/12 07:35:23;;;;;;;;;;;;;;;19.07;63.01;102654.96;2357799;74;50866;-73
2022/11/12 07:38:24;;;;;;;;;;;;;;;19.03;63.08;102653.03;2412025;73;51406;-72
2022/11/12 07:41:26;;;;;;;;;;;;;;;19.03;63.09;102666.94;2411960;73;51464;-72
2022/11/12 07:44:27;;;;;;;;;;;;;;;18.99;63.10;102662.85;2411932;73;50367;-72
2022/11/12 07:47:29;;;;;;;;;;;;;;;18.99;63.12;102662.35;2364914;73;52277;-72
2022/11/12 07:50:30;;;;;;;;;;;;;;;19.03;63.10;102648.16;2428543;73;50055;-72
2022/11/12 07:53:32;;;;;;;;;;;;;;;19.11;62.87;102664.42;2428368;73;50272;-72
2022/11/12 07:56:34;;;;;;;;;;;;;;;19.15;62.72;102664.01;2423422;73;49921;-72
2022/11/12 07:59:35;;;;;;;;;;;;;;;19.15;62.69;102663.17;2356718;73;51638;-73
2022/11/12 08:02:37;;;;;;;;;;;;;;;19.11;62.71;102665.30;2389135;73;51527;-73
2022/11/12 08:05:38;;;;;;;;;;;;;;;19.08;62.78;102670.91;2429229;73;50593;-73
2022/11/12 08:08:40;;;;;;;;;;;;;;;19.05;62.86;102669.00;2413642;73;51458;-73
2022/11/12 08:11:41;;;;;;;;;;;;;;;19.02;62.92;102660.73;2384810;73;52700;-73
2022/11/12 08:14:43;;;;;;;;;;;;;;;18.98;62.99;102667.34;2412888;73;51681;-73
2022/11/12 08:17:45;;;;;;;;;;;;;;;18.97;62.97;102671.52;2413164;73;51455;-73
2022/11/12 08:20:46;;;;;;;;;;;;;;;18.97;63.04;102664.81;2413484;73;50430;-72
2022/11/12 08:23:48;;;;;;;;;;;;;;;19.02;62.95;102667.94;2412966;73;50889;-72
2022/11/12 08:26:49;;;;;;;;;;;;;;;19.08;62.80;102668.22;2413523;73;50236;-73
2022/11/12 08:29:51;;;;;;;;;;;;;;;19.13;62.62;102659.77;2417798;73;50638;-72
2022/11/12 08:32:57;;;;;;;;;;;;;;;19.15;62.53;102659.14;2399329;73;50724;-73
2022/11/12 08:36:00;;;;;;;;;;;;;;;19.13;62.55;102667.81;2383356;74;52368;-73
2022/11/12 08:39:02;;;;;;;;;;;;;;;19.07;62.67;102657.64;2413451;74;51442;-73
2022/11/12 08:42:04;;;;;;;;;;;;;;;19.05;62.69;102660.45;2386333;73;51542;-73
2022/11/12 08:45:06;;;;;;;;;;;;;;;19.01;62.78;102667.56;2391057;73;50721;-72
2022/11/12 08:48:08;;;;;;;;;;;;;;;18.96;62.88;102657.73;2384109;73;51427;-72
2022/11/12 08:51:10;;;;;;;;;;;;;;;18.96;62.89;102668.47;2412486;74;51558;-73
2022/11/12 08:54:11;;;;;;;;;;;;;;;18.96;62.88;102669.80;2412595;74;50617;-72
2022/11/12 08:57:13;;;;;;;;;;;;;;;19.03;62.80;102660.23;2414187;74;50256;-72
2022/11/12 09:00:15;;;;;;;;;;;;;;;19.07;62.69;102671.06;2337395;74;49622;-72
2022/11/12 09:03:17;;;;;;;;;;;;;;;19.10;62.56;102670.28;2382939;73;49953;-72
2022/11/12 09:06:19;;;;;;;;;;;;;;;19.10;62.52;102664.08;2384056;73;50664;-72
2022/11/12 09:09:20;;;;;;;;;;;;;;;19.08;62.55;102671.41;2382823;73;51382;-72
2022/11/12 09:12:22;;;;;;;;;;;;;;;19.05;62.57;102666.32;2357242;73;49978;-72
2022/11/12 09:15:24;;;;;;;;;;;;;;;19.02;62.66;102666.09;2383065;73;51539;-72
2022/11/12 09:18:25;;;;;;;;;;;;;;;18.99;62.74;102674.92;2412828;73;50759;-72
2022/11/12 09:21:27;;;;;;;;;;;;;;;18.95;62.81;102673.48;2383782;73;51436;-72
2022/11/12 09:24:28;;;;;;;;;;;;;;;18.93;62.84;102672.27;2383879;73;52355;-73
2022/11/12 09:27:30;;;;;;;;;;;;;;;18.93;62.86;102673.14;2381983;73;51515;-72
2022/11/12 09:30:31;;;;;;;;;;;;;;;19.00;62.78;102680.64;2375628;73;50238;-72
2022/11/12 09:33:33;;;;;;;;;;;;;;;19.07;62.61;102675.09;2409619;73;50255;-72
2022/11/12 09:36:35;;;;;;;;;;;;;;;19.11;62.42;102673.34;2383610;73;51052;-72
2022/11/12 09:39:36;;;;;;;;;;;;;;;19.12;62.34;102685.76;2412201;73;50417;-71
2022/11/12 09:42:38;;;;;;;;;;;;;;;19.10;62.35;102682.86;2412974;73;51468;-73
2022/11/12 09:45:39;;;;;;;;;;;;;;;19.06;62.47;102678.73;2412819;73;50404;-72
2022/11/12 09:48:42;;;;;;;;;;;;;;;19.03;62.50;102681.70;2412679;73;52362;-72
2022/11/12 09:51:52;;;;;;;;;;;;;;;19.02;62.50;102682.70;2412947;73;50663;-72
2022/11/12 09:55:04;;;;;;;;;;;;;;;18.97;62.64;102678.23;2411648;73;50415;-73
2022/11/12 09:58:07;;;;;;;;;;;;;;;18.96;62.63;102680.54;2412363;73;51530;-72
2022/11/12 10:01:13;;;;;;;;;;;;;;;18.97;62.68;102684.94;2383794;73;52730;-72
2022/11/12 10:04:35;;;;;;;;;;;;;;;19.01;62.61;102676.95;2417937;73;51498;-72
2022/11/12 10:07:39;;;;;;;;;;;;;;;19.07;62.47;102676.42;2418560;73;51580;-73
2022/11/12 10:10:42;;;;;;;;;;;;;;;19.10;62.31;102682.86;2412904;73;50686;-73
2022/11/12 10:13:55;;;;;;;;;;;;;;;19.09;62.32;102673.13;2383833;73;51873;-72
2022/11/12 10:17:10;;;;;;;;;;;;;;;19.08;62.31;102668.72;2412866;73;50304;-72
2022/11/12 10:20:22;;;;;;;;;;;;;;;19.04;62.37;102675.37;2412859;73;51458;-72
2022/11/12 10:23:30;;;;;;;;;;;;;;;18.99;62.47;102669.06;2412707;73;51659;-73
2022/11/12 10:26:33;;;;;;;;;;;;;;;18.95;62.62;102670.30;2412998;73;50215;-73
2022/11/12 10:29:48;;;;;;;;;;;;;;;18.92;62.62;102675.45;2406341;73;51556;-73
2022/11/12 10:32:51;;;;;;;;;;;;;;;18.95;62.60;102675.67;2425380;73;51544;-72
2022/11/12 10:35:52;;;;;;;;;;;;;;;18.97;62.64;102662.13;2422584;73;50802;-73
2022/11/12 10:38:54;;;;;;;;;;;;;;;19.07;62.39;102672.41;2411540;74;51378;-73
2022/11/12 10:42:03;;;;;;;;;;;;;;;19.12;62.24;102686.26;2383190;74;50756;-73
2022/11/12 10:45:12;;;;;;;;;;;;;;;19.13;62.16;102650.37;2382884;74;50749;-73
2022/11/12 10:48:25;;;;;;;;;;;;;;;19.12;62.14;102655.40;2410135;73;50725;-73
2022/11/12 10:51:29;;;;;;;;;;;;;;;19.08;62.24;102681.64;2382820;74;50927;-73
2022/11/12 10:54:32;;;;;;;;;;;;;;;19.04;62.29;102653.41;2410400;74;50791;-73
2022/11/12 10:57:33;;;;;;;;;;;;;;;19.00;62.40;102649.78;2410412;72;50480;-73
2022/11/12 11:00:36;;;;;;;;;;;;;;;19.00;62.43;102671.25;2410917;73;50405;-73
2022/11/12 11:03:39;;;;;;;;;;;;;;;18.98;62.41;102668.69;2383390;73;52412;-73
2022/11/12 11:06:40;;;;;;;;;;;;;;;18.99;62.49;102662.85;2410862;74;50697;-73
2022/11/12 11:09:52;;;;;;;;;;;;;;;19.03;62.38;102667.78;2411532;74;50263;-73
2022/11/12 11:13:11;;;;;;;;;;;;;;;19.11;62.19;102653.68;2410395;74;51757;-73
2022/11/12 11:16:13;;;;;;;;;;;;;;;19.14;62.09;102652.94;2366509;73;51718;-73
2022/11/12 11:19:15;;;;;;;;;;;;;;;19.13;62.09;102653.06;2401971;72;50399;-73
2022/11/12 11:22:30;;;;;;;;;;;;;;;19.14;62.06;102645.38;2401541;71;50447;-74
2022/11/12 11:25:32;;;;;;;;;;;;;;;19.08;62.19;102659.33;2393508;73;51815;-73
2022/11/12 11:28:35;;;;;;;;;;;;;;;19.04;62.27;102649.88;2383575;74;51746;-73
2022/11/12 11:31:38;;;;;;;;;;;;;;;19.01;62.35;102639.39;2409068;73;51254;-73
2022/11/12 11:34:45;;;;;;;;;;;;;;;18.98;62.43;102645.05;2409279;73;50292;-73
2022/11/12 11:37:48;;;;;;;;;;;;;;;18.97;62.45;102633.47;2408979;73;51588;-73
2022/11/12 11:40:54;;;;;;;;;;;;;;;19.00;62.49;102645.76;2382499;74;52403;-72
2022/11/12 11:44:03;;;;;;;;;;;;;;;19.06;62.35;102635.80;2408767;74;51495;-72
2022/11/12 11:47:09;;;;;;;;;;;;;;;19.12;62.19;102637.95;2402315;74;51512;-73
2022/11/12 11:50:31;;;;;;;;;;;;;;;19.12;62.18;102628.06;2409743;73;51462;-73
2022/11/12 11:53:53;;;;;;;;;;;;;;;19.11;62.19;102626.84;2363819;74;51945;-72
2022/11/12 11:56:56;;;;;;;;;;;;;;;19.08;62.25;102628.47;2369656;73;51477;-72
2022/11/12 11:59:59;;;;;;;;;;;;;;;19.02;62.38;102637.93;2412865;73;50326;-72
2022/11/12 12:03:02;;;;;;;;;;;;;;;19.00;62.46;102628.32;2412535;73;50117;-73
2022/11/12 12:06:23;;;;;;;;;;;;;;;18.98;62.50;102639.67;2386533;72;51247;-72
2022/11/12 12:09:43;;;;;;;;;;;;;;;18.95;62.63;102631.41;2389351;73;51636;-73
2022/11/12 12:12:46;;;;;;;;;;;;;;;18.97;62.66;102633.47;2360412;75;50311;-72
2022/11/12 12:16:06;;;;;;;;;;;;;;;19.03;62.51;102624.86;2399937;72;51939;-72
2022/11/12 12:19:09;;;;;;;;;;;;;;;19.10;62.30;102621.98;2426445;72;50320;-72
2022/11/12 12:22:14;;;;;;;;;;;;;;;19.11;62.28;102625.51;2388220;74;50813;-73
2022/11/12 12:25:23;;;;;;;;;;;;;;;19.08;62.33;102621.77;2401312;74;50677;-72
2022/11/12 12:28:26;;;;;;;;;;;;;;;19.05;62.36;102605.95;2430538;72;50031;-72
2022/11/12 12:31:29;;;;;;;;;;;;;;;19.01;62.44;102609.41;2395759;73;51316;-74
2022/11/12 12:34:32;;;;;;;;;;;;;;;19.00;62.49;102613.56;2413325;73;51523;-73
2022/11/12 12:37:47;;;;;;;;;;;;;;;18.97;62.53;102604.45;2382432;73;50449;-73
2022/11/12 12:40:57;;;;;;;;;;;;;;;18.96;62.59;102610.79;2411947;73;50297;-72
2022/11/12 12:44:03;;;;;;;;;;;;;;;18.97;62.68;102616.53;2382062;73;51146;-72
2022/11/12 12:47:04;;;;;;;;;;;;;;;19.07;62.45;102612.03;2411562;73;49834;-74
2022/11/12 12:50:07;;;;;;;;;;;;;;;19.12;62.26;102607.09;2384729;73;50398;-73
2022/11/12 12:53:16;;;;;;;;;;;;;;;19.11;62.25;102600.89;2412268;73;51514;-72
2022/11/12 12:56:25;;;;;;;;;;;;;;;19.10;62.25;102604.54;2372752;73;52392;-72
2022/11/12 12:59:27;;;;;;;;;;;;;;;19.07;62.32;102594.59;2429195;72;50954;-74
2022/11/12 13:02:29;;;;;;;;;;;;;;;19.06;62.34;102583.48;2432749;72;51573;-73
2022/11/12 13:05:31;;;;;;;;;;;;;;;19.01;62.42;102585.73;2408604;72;51434;-72
2022/11/12 13:08:34;;;;;;;;;;;;;;;18.96;62.60;102576.79;2393535;73;49700;-73
2022/11/12 13:15:10;;;;;;;;;;;;;;;18.98;62.64;102575.29;2428081;73;22457;-73
2022/11/12 13:18:12;;;;;;;;;;;;;;;19.03;62.54;102570.36;2422865;73;51544;-75
2022/11/12 13:21:17;;;;;;;;;;;;;;;19.04;62.70;102566.70;2331197;74;51754;-75
2022/11/12 13:24:20;;;;;;;;;;;;;;;19.00;63.11;102566.61;2384738;73;51512;-73
2022/11/12 13:27:41;;;;;;;;;;;;;;;19.00;63.80;102580.03;2393475;73;51435;-74
2022/11/12 13:30:44;;;;;;;;;;;;;;;19.02;63.78;102580.74;2367726;75;50666;-75
2022/11/12 13:33:46;;;;;;;;;;;;;;;19.01;63.86;102584.39;2348121;74;51723;-74
2022/11/12 13:36:54;;;;;;;;;;;;;;;18.98;64.01;102573.95;2367136;74;51461;-75
2022/11/12 13:39:56;;;;;;;;;;;;;;;18.97;64.05;102578.97;2367149;75;50758;-75
2022/11/12 13:42:59;;;;;;;;;;;;;;;18.93;64.45;102585.96;2325955;75;51543;-75
2022/11/12 13:46:09;;;;;;;;;;;;;;;18.93;64.57;102587.77;2319775;75;50997;-75
2022/11/12 13:49:12;;;;;;;;;;;;;;;19.03;64.37;102589.14;2341577;75;50249;-75
2022/11/12 13:52:14;;;;;;;;;;;;;;;19.08;64.17;102576.99;2385878;74;51633;-75
2022/11/12 13:55:17;;;;;;;;;;;;;;;19.14;64.06;102583.16;2387111;74;51512;-75
2022/11/12 13:58:20;;;;;;;;;;;;;;;19.12;64.09;102589.16;2369074;74;51024;-75
2022/11/12 14:01:22;;;;;;;;;;;;;;;19.11;64.15;102581.23;2385026;74;50559;-75
2022/11/12 14:04:23;;;;;;;;;;;;;;;19.10;64.18;102588.94;2387103;74;50810;-75
2022/11/12 14:07:44;;;;;;;;;;;;;;;19.05;64.31;102576.44;2387146;74;51500;-75
2022/11/12 14:10:50;;;;;;;;;;;;;;;18.99;64.51;102583.21;2386838;74;50257;-75
2022/11/12 14:14:05;;;;;;;;;;;;;;;18.95;64.72;102583.63;2385592;74;51463;-75
2022/11/12 14:17:17;;;;;;;;;;;;;;;18.96;64.84;102584.84;2387061;74;50692;-75
2022/11/12 14:20:26;;;;;;;;;;;;;;;19.03;64.70;102581.93;2359567;74;50451;-75
2022/11/12 14:23:28;;;;;;;;;;;;;;;19.08;64.60;102578.84;2354595;75;49967;-75
2022/11/12 14:26:33;;;;;;;;;;;;;;;19.10;64.47;102575.03;2355030;75;51411;-76
2022/11/12 14:29:35;;;;;;;;;;;;;;;19.08;64.53;102572.97;2353617;75;51440;-75
2022/11/12 14:32:37;;;;;;;;;;;;;;;19.05;64.59;102579.12;2355521;75;51437;-76
2022/11/12 14:35:39;;;;;;;;;;;;;;;19.03;64.69;102575.72;2354930;75;50164;-75
2022/11/12 14:38:51;;;;;;;;;;;;;;;19.01;64.75;102569.64;2354490;75;50666;-75
2022/11/12 14:41:53;;;;;;;;;;;;;;;18.98;64.84;102569.92;2353243;75;51569;-75
2022/11/12 14:44:54;;;;;;;;;;;;;;;18.95;64.95;102567.52;2353531;75;51253;-75
2022/11/12 14:47:57;;;;;;;;;;;;;;;18.93;65.13;102564.50;2353309;75;51477;-76
2022/11/12 14:51:00;;;;;;;;;;;;;;;18.98;65.10;102567.24;2363799;74;50700;-76
2022/11/12 14:54:02;;;;;;;;;;;;;;;19.02;65.06;102567.33;2369260;75;51557;-76
2022/11/12 14:57:04;;;;;;;;;;;;;;;19.10;64.80;102567.48;2369886;75;50809;-76
2022/11/12 15:00:13;;;;;;;;;;;;;;;19.11;64.73;102567.81;2371298;75;52371;-74
2022/11/12 15:03:16;;;;;;;;;;;;;;;19.10;64.72;102564.79;2356485;75;51548;-74
2022/11/12 15:06:22;;;;;;;;;;;;;;;19.09;64.77;102567.13;2369681;75;51361;-74
2022/11/12 15:09:34;;;;;;;;;;;;;;;19.05;64.83;102560.34;2362550;75;50480;-75
2022/11/12 15:12:36;;;;;;;;;;;;;;;19.03;64.92;102562.31;2343923;75;52690;-75
2022/11/12 15:15:38;;;;;;;;;;;;;;;18.96;65.09;102559.35;2369669;75;51436;-75
2022/11/12 15:18:40;;;;;;;;;;;;;;;18.93;65.34;102559.13;2367536;75;50637;-76
2022/11/12 15:21:45;;;;;;;;;;;;;;;18.91;65.42;102554.39;2339445;75;52495;-75
2022/11/12 15:24:48;;;;;;;;;;;;;;;18.95;65.40;102559.48;2339500;75;52584;-75
2022/11/12 15:27:50;;;;;;;;;;;;;;;19.03;65.21;102564.48;2368242;74;50383;-75
2022/11/12 15:31:08;;;;;;;;;;;;;;;19.10;64.95;102562.11;2377507;75;50390;-75
2022/11/12 15:34:20;;;;;;;;;;;;;;;19.11;64.92;102562.45;2375414;74;51408;-76
2022/11/12 15:37:24;;;;;;;;;;;;;;;19.09;64.94;102569.81;2315877;75;52633;-74
2022/11/12 15:40:26;;;;;;;;;;;;;;;19.05;65.01;102559.84;2378338;74;51580;-76
2022/11/12 15:43:28;;;;;;;;;;;;;;;19.03;65.05;102562.31;2377483;75;50671;-75
2022/11/12 15:46:29;;;;;;;;;;;;;;;18.98;65.21;102564.06;2377539;75;50370;-76
2022/11/12 15:49:35;;;;;;;;;;;;;;;18.92;65.34;102555.23;2352327;74;49596;-76
2022/11/12 15:52:34;;;;;;;;;;;;;;;18.91;65.53;102555.73;2388557;73;23273;-76
2022/11/12 15:55:36;;;;;;;;;;;;;;;18.91;65.60;102562.94;2419899;73;51441;-75
2022/11/12 15:58:39;;;;;;;;;;;;;;;18.99;65.48;102560.91;2420313;73;50438;-76
2022/11/12 16:01:41;;;;;;;;;;;;;;;19.05;65.29;102565.70;2395956;73;52408;-75
2022/11/12 16:04:42;;;;;;;;;;;;;;;19.10;65.12;102571.50;2421547;73;51471;-76
2022/11/12 16:07:44;;;;;;;;;;;;;;;19.11;65.09;102577.20;2392966;73;50179;-76
2022/11/12 16:10:45;;;;;;;;;;;;;;;19.10;65.01;102579.55;2419901;73;50443;-76